Terminal Aerodrome Forecast
Issued by NWS

Home | Current Version | Previous Version | Text Only | Print | Product List | Glossary On
Versions: 1 2 3 4 5 6 7 8 9 10 11 12 13 14
000
FTUS41 KBTV 261132
TAFMPV
TAF
KMPV 261132Z 2612/2712 21010KT P6SM VCSH BKN050
     FM261400 25011G20KT P6SM SCT050
     FM270000 VRB03KT P6SM BKN050=

USA.gov is the U.S. government's official web portal to all federal, state and local government web resources and services.